Thatcher, Colorado
Current Conditions -  °F | °C
As of 6:54 PM on Friday 28 Nov 2014 (Local Time) from KTAD Reporting Station
Clear Clear  
Wind Chill: 38°   Ceiling: Unl
Heat Index: 44°   Visibility: 10mi
Dew Point: 25°   Wind: 12mph
Humidity: 47%   Direction: 270°W
Pressure: 29.92"   Gusts: NA
Location:  37.5307°N, 104.063°W
Report Text: KTAD 290154Z AUTO 27010KT 10SM CLR 07/M04 A2992 RMK AO2 SLP114 T00671039
Loading
Personal Weather Stations






























Interactive Weather Map New forecast layout! Learn more

10-Day Weather Forecast

Advertisements
Track Severe Weather on mobile